sensor_id;sensor_type;location;lat;lon;timestamp;temperature;humidity
15413;DHT22;7805;49.554;7.632;2024-03-02T00:02:14;4.70;99.90
15413;DHT22;7805;49.554;7.632;2024-03-02T00:04:40;4.60;99.90
15413;DHT22;7805;49.554;7.632;2024-03-02T00:07:06;4.60;99.90
15413;DHT22;7805;49.554;7.632;2024-03-02T00:09:33;4.60;99.90
15413;DHT22;7805;49.554;7.632;2024-03-02T00:12:00;4.60;99.90
15413;DHT22;7805;49.554;7.632;2024-03-02T00:14:28;4.50;99.90
15413;DHT22;7805;49.554;7.632;2024-03-02T00:16:55;4.50;99.90
15413;DHT22;7805;49.554;7.632;2024-03-02T00:19:21;4.50;99.90
15413;DHT22;7805;49.554;7.632;2024-03-02T00:21:47;4.50;99.90
15413;DHT22;7805;49.554;7.632;2024-03-02T00:24:33;4.50;99.90
15413;DHT22;7805;49.554;7.632;2024-03-02T00:27:00;4.50;99.90
15413;DHT22;7805;49.554;7.632;2024-03-02T00:29:27;4.40;99.90
15413;DHT22;7805;49.554;7.632;2024-03-02T00:31:53;4.40;99.90
15413;DHT22;7805;49.554;7.632;2024-03-02T00:34:20;4.40;99.90
15413;DHT22;7805;49.554;7.632;2024-03-02T00:36:46;4.40;99.90
15413;DHT22;7805;49.554;7.632;2024-03-02T00:39:12;4.40;99.90
15413;DHT22;7805;49.554;7.632;2024-03-02T00:41:41;4.40;99.90
15413;DHT22;7805;49.554;7.632;2024-03-02T00:44:12;4.40;99.90
15413;DHT22;7805;49.554;7.632;2024-03-02T00:46:39;4.30;99.90
15413;DHT22;7805;49.554;7.632;2024-03-02T00:51:46;4.30;99.90
15413;DHT22;7805;49.554;7.632;2024-03-02T00:54:14;4.30;99.90
15413;DHT22;7805;49.554;7.632;2024-03-02T00:56:41;4.20;99.90
15413;DHT22;7805;49.554;7.632;2024-03-02T00:59:07;4.20;99.90
15413;DHT22;7805;49.554;7.632;2024-03-02T01:01:34;4.10;99.90
15413;DHT22;7805;49.554;7.632;2024-03-02T01:04:00;4.00;99.90
15413;DHT22;7805;49.554;7.632;2024-03-02T01:06:26;4.00;99.90
15413;DHT22;7805;49.554;7.632;2024-03-02T01:08:51;4.00;99.90
15413;DHT22;7805;49.554;7.632;2024-03-02T01:11:17;4.00;99.90
15413;DHT22;7805;49.554;7.632;2024-03-02T01:13:44;3.90;99.90
15413;DHT22;7805;49.554;7.632;2024-03-02T01:16:10;3.80;99.90
15413;DHT22;7805;49.554;7.632;2024-03-02T01:18:35;3.80;99.90
15413;DHT22;7805;49.554;7.632;2024-03-02T01:21:01;3.80;99.90
15413;DHT22;7805;49.554;7.632;2024-03-02T01:23:27;3.80;99.90
15413;DHT22;7805;49.554;7.632;2024-03-02T01:25:52;3.80;99.90
15413;DHT22;7805;49.554;7.632;2024-03-02T01:28:19;3.80;99.90
15413;DHT22;7805;49.554;7.632;2024-03-02T01:30:46;3.80;99.90
15413;DHT22;7805;49.554;7.632;2024-03-02T01:33:12;3.90;99.90
15413;DHT22;7805;49.554;7.632;2024-03-02T01:35:38;3.80;99.90
15413;DHT22;7805;49.554;7.632;2024-03-02T01:38:04;3.80;99.90
15413;DHT22;7805;49.554;7.632;2024-03-02T01:40:34;3.80;99.90
15413;DHT22;7805;49.554;7.632;2024-03-02T01:42:59;3.80;99.90
15413;DHT22;7805;49.554;7.632;2024-03-02T01:45:25;3.80;99.90
15413;DHT22;7805;49.554;7.632;2024-03-02T01:47:51;3.80;99.90
15413;DHT22;7805;49.554;7.632;2024-03-02T01:50:25;3.80;99.90
15413;DHT22;7805;49.554;7.632;2024-03-02T01:52:51;3.80;99.90
15413;DHT22;7805;49.554;7.632;2024-03-02T01:55:17;3.70;99.90
15413;DHT22;7805;49.554;7.632;2024-03-02T01:57:42;3.70;99.90
15413;DHT22;7805;49.554;7.632;2024-03-02T02:00:10;3.60;99.90
15413;DHT22;7805;49.554;7.632;2024-03-02T02:02:36;3.60;99.90
15413;DHT22;7805;49.554;7.632;2024-03-02T02:05:02;3.60;99.90
15413;DHT22;7805;49.554;7.632;2024-03-02T02:07:27;3.60;99.90
15413;DHT22;7805;49.554;7.632;2024-03-02T02:09:53;3.60;99.90
15413;DHT22;7805;49.554;7.632;2024-03-02T02:12:19;3.60;99.90
15413;DHT22;7805;49.554;7.632;2024-03-02T02:14:48;3.60;99.90
15413;DHT22;7805;49.554;7.632;2024-03-02T02:17:14;3.60;99.90
15413;DHT22;7805;49.554;7.632;2024-03-02T02:19:41;3.60;99.90
15413;DHT22;7805;49.554;7.632;2024-03-02T02:22:06;3.50;99.90
15413;DHT22;7805;49.554;7.632;2024-03-02T02:24:32;3.50;99.90
15413;DHT22;7805;49.554;7.632;2024-03-02T02:26:57;3.40;99.90
15413;DHT22;7805;49.554;7.632;2024-03-02T02:29:23;3.30;99.90
15413;DHT22;7805;49.554;7.632;2024-03-02T02:31:48;3.30;99.90
15413;DHT22;7805;49.554;7.632;2024-03-02T02:34:14;3.30;99.90
15413;DHT22;7805;49.554;7.632;2024-03-02T02:36:41;3.30;99.90
15413;DHT22;7805;49.554;7.632;2024-03-02T02:39:13;3.30;99.90
15413;DHT22;7805;49.554;7.632;2024-03-02T02:41:40;3.30;99.90
15413;DHT22;7805;49.554;7.632;2024-03-02T02:44:05;3.30;99.90
15413;DHT22;7805;49.554;7.632;2024-03-02T02:46:31;3.30;99.90
15413;DHT22;7805;49.554;7.632;2024-03-02T02:48:56;3.40;99.90
15413;DHT22;7805;49.554;7.632;2024-03-02T02:51:22;3.40;99.90
15413;DHT22;7805;49.554;7.632;2024-03-02T02:53:49;3.40;99.90
15413;DHT22;7805;49.554;7.632;2024-03-02T02:56:14;3.40;99.90
15413;DHT22;7805;49.554;7.632;2024-03-02T02:58:40;3.30;99.90
15413;DHT22;7805;49.554;7.632;2024-03-02T03:01:07;3.40;99.90
15413;DHT22;7805;49.554;7.632;2024-03-02T03:03:33;3.40;99.90
15413;DHT22;7805;49.554;7.632;2024-03-02T03:05:58;3.40;99.90
15413;DHT22;7805;49.554;7.632;2024-03-02T03:08:24;3.40;99.90
15413;DHT22;7805;49.554;7.632;2024-03-02T03:10:50;3.50;99.90
15413;DHT22;7805;49.554;7.632;2024-03-02T03:13:15;3.50;99.90
15413;DHT22;7805;49.554;7.632;2024-03-02T03:15:41;3.50;99.90
15413;DHT22;7805;49.554;7.632;2024-03-02T03:18:06;3.50;99.90
15413;DHT22;7805;49.554;7.632;2024-03-02T03:20:35;3.60;99.90
15413;DHT22;7805;49.554;7.632;2024-03-02T03:23:01;3.50;99.90
15413;DHT22;7805;49.554;7.632;2024-03-02T03:25:27;3.50;99.90
15413;DHT22;7805;49.554;7.632;2024-03-02T03:27:52;3.50;99.90
15413;DHT22;7805;49.554;7.632;2024-03-02T03:30:18;3.50;99.90
15413;DHT22;7805;49.554;7.632;2024-03-02T03:32:44;3.50;99.90
15413;DHT22;7805;49.554;7.632;2024-03-02T03:35:09;3.50;99.90
15413;DHT22;7805;49.554;7.632;2024-03-02T03:37:35;3.50;99.90
15413;DHT22;7805;49.554;7.632;2024-03-02T03:40:01;3.50;99.90
15413;DHT22;7805;49.554;7.632;2024-03-02T03:42:28;3.50;99.90
15413;DHT22;7805;49.554;7.632;2024-03-02T03:44:53;3.50;99.90
15413;DHT22;7805;49.554;7.632;2024-03-02T03:47:19;3.50;99.90
15413;DHT22;7805;49.554;7.632;2024-03-02T03:49:45;3.50;99.90
15413;DHT22;7805;49.554;7.632;2024-03-02T03:52:11;3.60;99.90
15413;DHT22;7805;49.554;7.632;2024-03-02T03:54:37;3.50;99.90
15413;DHT22;7805;49.554;7.632;2024-03-02T03:57:04;3.40;99.90
15413;DHT22;7805;49.554;7.632;2024-03-02T03:59:30;3.40;99.90
15413;DHT22;7805;49.554;7.632;2024-03-02T04:01:55;3.40;99.90
15413;DHT22;7805;49.554;7.632;2024-03-02T04:04:21;3.40;99.90
15413;DHT22;7805;49.554;7.632;2024-03-02T04:06:47;3.50;99.90
15413;DHT22;7805;49.554;7.632;2024-03-02T04:09:12;3.50;99.90
15413;DHT22;7805;49.554;7.632;2024-03-02T04:11:38;3.60;99.90
15413;DHT22;7805;49.554;7.632;2024-03-02T04:14:04;3.60;99.90
15413;DHT22;7805;49.554;7.632;2024-03-02T04:16:31;3.60;99.90
15413;DHT22;7805;49.554;7.632;2024-03-02T04:18:57;3.70;99.90
15413;DHT22;7805;49.554;7.632;2024-03-02T04:21:22;3.70;99.90
15413;DHT22;7805;49.554;7.632;2024-03-02T04:23:48;3.70;99.90
15413;DHT22;7805;49.554;7.632;2024-03-02T04:26:14;3.70;99.90
15413;DHT22;7805;49.554;7.632;2024-03-02T04:28:40;3.70;99.90
15413;DHT22;7805;49.554;7.632;2024-03-02T04:31:06;3.70;99.90
15413;DHT22;7805;49.554;7.632;2024-03-02T04:33:31;3.60;99.90
15413;DHT22;7805;49.554;7.632;2024-03-02T04:35:57;3.60;99.90
15413;DHT22;7805;49.554;7.632;2024-03-02T04:38:23;3.60;99.90
15413;DHT22;7805;49.554;7.632;2024-03-02T04:40:48;3.60;99.90
15413;DHT22;7805;49.554;7.632;2024-03-02T04:43:14;3.70;99.90
15413;DHT22;7805;49.554;7.632;2024-03-02T04:45:41;3.70;99.90
15413;DHT22;7805;49.554;7.632;2024-03-02T04:48:08;3.70;99.90
15413;DHT22;7805;49.554;7.632;2024-03-02T04:50:33;3.80;99.90
15413;DHT22;7805;49.554;7.632;2024-03-02T04:52:59;3.80;99.90
15413;DHT22;7805;49.554;7.632;2024-03-02T04:55:24;3.80;99.90
15413;DHT22;7805;49.554;7.632;2024-03-02T04:58:10;3.90;99.90
15413;DHT22;7805;49.554;7.632;2024-03-02T05:00:36;3.90;99.90
15413;DHT22;7805;49.554;7.632;2024-03-02T05:03:02;4.00;99.90
15413;DHT22;7805;49.554;7.632;2024-03-02T05:05:27;4.10;99.90
15413;DHT22;7805;49.554;7.632;2024-03-02T05:07:53;4.20;99.90
15413;DHT22;7805;49.554;7.632;2024-03-02T05:10:19;4.20;99.90
15413;DHT22;7805;49.554;7.632;2024-03-02T05:12:44;4.30;99.90
15413;DHT22;7805;49.554;7.632;2024-03-02T05:15:11;4.30;99.90
15413;DHT22;7805;49.554;7.632;2024-03-02T05:17:37;4.30;99.90
15413;DHT22;7805;49.554;7.632;2024-03-02T05:20:07;4.30;99.90
15413;DHT22;7805;49.554;7.632;2024-03-02T05:22:36;4.30;99.90
15413;DHT22;7805;49.554;7.632;2024-03-02T05:25:04;4.40;99.90
15413;DHT22;7805;49.554;7.632;2024-03-02T05:27:30;4.40;99.90
15413;DHT22;7805;49.554;7.632;2024-03-02T05:29:55;4.40;99.90
15413;DHT22;7805;49.554;7.632;2024-03-02T05:32:21;4.50;99.90
15413;DHT22;7805;49.554;7.632;2024-03-02T05:34:46;4.50;99.90
15413;DHT22;7805;49.554;7.632;2024-03-02T05:37:12;4.50;99.90
15413;DHT22;7805;49.554;7.632;2024-03-02T05:39:38;4.60;99.90
15413;DHT22;7805;49.554;7.632;2024-03-02T05:42:03;4.50;99.90
15413;DHT22;7805;49.554;7.632;2024-03-02T05:44:29;4.50;99.90
15413;DHT22;7805;49.554;7.632;2024-03-02T05:46:55;4.50;99.90
15413;DHT22;7805;49.554;7.632;2024-03-02T05:49:21;4.50;99.90
15413;DHT22;7805;49.554;7.632;2024-03-02T05:51:47;4.60;99.90
15413;DHT22;7805;49.554;7.632;2024-03-02T05:54:12;4.60;99.90
15413;DHT22;7805;49.554;7.632;2024-03-02T05:56:38;4.60;99.90
15413;DHT22;7805;49.554;7.632;2024-03-02T05:59:03;4.50;99.90
15413;DHT22;7805;49.554;7.632;2024-03-02T06:04:04;4.60;99.90
15413;DHT22;7805;49.554;7.632;2024-03-02T06:06:30;4.50;99.90
15413;DHT22;7805;49.554;7.632;2024-03-02T06:08:57;4.60;99.90
15413;DHT22;7805;49.554;7.632;2024-03-02T06:11:24;4.70;99.90
15413;DHT22;7805;49.554;7.632;2024-03-02T06:13:50;4.70;99.90
15413;DHT22;7805;49.554;7.632;2024-03-02T06:16:15;4.70;99.90
15413;DHT22;7805;49.554;7.632;2024-03-02T06:18:41;4.80;99.90
15413;DHT22;7805;49.554;7.632;2024-03-02T06:21:06;4.80;99.90
15413;DHT22;7805;49.554;7.632;2024-03-02T06:23:32;4.80;99.90
15413;DHT22;7805;49.554;7.632;2024-03-02T06:25:57;4.80;99.90
15413;DHT22;7805;49.554;7.632;2024-03-02T06:28:23;4.80;99.90
15413;DHT22;7805;49.554;7.632;2024-03-02T06:30:48;4.90;99.90
15413;DHT22;7805;49.554;7.632;2024-03-02T06:33:14;4.90;99.90
15413;DHT22;7805;49.554;7.632;2024-03-02T06:35:40;4.90;99.90
15413;DHT22;7805;49.554;7.632;2024-03-02T06:38:06;5.00;99.90
15413;DHT22;7805;49.554;7.632;2024-03-02T06:40:31;5.00;99.90
15413;DHT22;7805;49.554;7.632;2024-03-02T06:42:57;5.00;99.90
15413;DHT22;7805;49.554;7.632;2024-03-02T06:45:23;5.00;99.90
15413;DHT22;7805;49.554;7.632;2024-03-02T06:47:49;5.00;99.90
15413;DHT22;7805;49.554;7.632;2024-03-02T06:50:14;5.10;99.90
15413;DHT22;7805;49.554;7.632;2024-03-02T06:52:40;5.10;99.90
15413;DHT22;7805;49.554;7.632;2024-03-02T06:55:06;5.00;99.90
15413;DHT22;7805;49.554;7.632;2024-03-02T06:57:31;4.90;99.90
15413;DHT22;7805;49.554;7.632;2024-03-02T06:59:57;4.90;99.90
15413;DHT22;7805;49.554;7.632;2024-03-02T07:02:24;5.00;99.90
15413;DHT22;7805;49.554;7.632;2024-03-02T07:04:52;5.10;99.90
15413;DHT22;7805;49.554;7.632;2024-03-02T07:07:18;5.20;99.90
15413;DHT22;7805;49.554;7.632;2024-03-02T07:09:43;5.30;99.90
15413;DHT22;7805;49.554;7.632;2024-03-02T07:12:09;5.40;99.90
15413;DHT22;7805;49.554;7.632;2024-03-02T07:14:35;5.40;99.90
15413;DHT22;7805;49.554;7.632;2024-03-02T07:17:19;5.40;99.90
15413;DHT22;7805;49.554;7.632;2024-03-02T07:19:44;5.50;99.90
15413;DHT22;7805;49.554;7.632;2024-03-02T07:22:10;5.60;99.90
15413;DHT22;7805;49.554;7.632;2024-03-02T07:24:45;5.70;99.90
15413;DHT22;7805;49.554;7.632;2024-03-02T07:27:12;5.80;99.90
15413;DHT22;7805;49.554;7.632;2024-03-02T07:29:38;5.90;99.90
15413;DHT22;7805;49.554;7.632;2024-03-02T07:32:04;5.90;99.90
15413;DHT22;7805;49.554;7.632;2024-03-02T07:34:30;6.00;99.90
15413;DHT22;7805;49.554;7.632;2024-03-02T07:36:56;6.10;99.90
15413;DHT22;7805;49.554;7.632;2024-03-02T07:39:22;6.20;99.90
15413;DHT22;7805;49.554;7.632;2024-03-02T07:41:47;6.20;99.90
15413;DHT22;7805;49.554;7.632;2024-03-02T07:44:13;6.30;99.90
15413;DHT22;7805;49.554;7.632;2024-03-02T07:46:44;6.40;99.90
15413;DHT22;7805;49.554;7.632;2024-03-02T07:49:12;6.50;99.90
15413;DHT22;7805;49.554;7.632;2024-03-02T07:51:38;6.50;99.90
15413;DHT22;7805;49.554;7.632;2024-03-02T07:54:04;6.60;99.90
15413;DHT22;7805;49.554;7.632;2024-03-02T07:56:29;6.70;99.90
15413;DHT22;7805;49.554;7.632;2024-03-02T07:58:55;6.80;99.90
15413;DHT22;7805;49.554;7.632;2024-03-02T08:01:22;6.90;99.90
15413;DHT22;7805;49.554;7.632;2024-03-02T08:03:48;7.00;99.90
15413;DHT22;7805;49.554;7.632;2024-03-02T08:06:16;7.10;99.90
15413;DHT22;7805;49.554;7.632;2024-03-02T08:08:42;7.30;99.90
15413;DHT22;7805;49.554;7.632;2024-03-02T08:11:07;7.80;99.90
15413;DHT22;7805;49.554;7.632;2024-03-02T08:13:35;8.40;99.90
15413;DHT22;7805;49.554;7.632;2024-03-02T08:16:04;8.90;99.90
15413;DHT22;7805;49.554;7.632;2024-03-02T08:18:32;9.10;99.90
15413;DHT22;7805;49.554;7.632;2024-03-02T08:20:58;9.00;99.90
15413;DHT22;7805;49.554;7.632;2024-03-02T08:23:23;9.00;99.90
15413;DHT22;7805;49.554;7.632;2024-03-02T08:25:49;8.90;99.90
15413;DHT22;7805;49.554;7.632;2024-03-02T08:28:14;8.80;99.90
15413;DHT22;7805;49.554;7.632;2024-03-02T08:30:40;8.70;99.90
15413;DHT22;7805;49.554;7.632;2024-03-02T08:33:06;8.60;99.90
15413;DHT22;7805;49.554;7.632;2024-03-02T08:35:31;8.60;99.90
15413;DHT22;7805;49.554;7.632;2024-03-02T08:38:04;8.70;99.90
15413;DHT22;7805;49.554;7.632;2024-03-02T08:40:30;8.80;99.90
15413;DHT22;7805;49.554;7.632;2024-03-02T08:42:55;8.80;99.90
15413;DHT22;7805;49.554;7.632;2024-03-02T08:45:21;8.90;99.90
15413;DHT22;7805;49.554;7.632;2024-03-02T08:47:47;9.00;99.90
15413;DHT22;7805;49.554;7.632;2024-03-02T08:50:12;9.00;99.90
15413;DHT22;7805;49.554;7.632;2024-03-02T08:52:38;9.20;99.90
15413;DHT22;7805;49.554;7.632;2024-03-02T08:55:04;9.30;99.90
15413;DHT22;7805;49.554;7.632;2024-03-02T08:57:30;9.50;99.90
15413;DHT22;7805;49.554;7.632;2024-03-02T08:59:56;9.60;99.90
15413;DHT22;7805;49.554;7.632;2024-03-02T09:02:22;9.10;99.90
15413;DHT22;7805;49.554;7.632;2024-03-02T09:04:47;9.90;99.90
15413;DHT22;7805;49.554;7.632;2024-03-02T09:07:14;10.10;99.90
15413;DHT22;7805;49.554;7.632;2024-03-02T09:09:39;10.30;99.90
15413;DHT22;7805;49.554;7.632;2024-03-02T09:12:06;10.30;99.90
15413;DHT22;7805;49.554;7.632;2024-03-02T09:14:32;10.40;99.90
15413;DHT22;7805;49.554;7.632;2024-03-02T09:16:58;11.90;99.90
15413;DHT22;7805;49.554;7.632;2024-03-02T09:19:23;10.50;99.90
15413;DHT22;7805;49.554;7.632;2024-03-02T09:21:49;10.60;99.90
15413;DHT22;7805;49.554;7.632;2024-03-02T09:24:15;10.80;99.90
15413;DHT22;7805;49.554;7.632;2024-03-02T09:26:41;10.80;99.90
15413;DHT22;7805;49.554;7.632;2024-03-02T09:29:06;11.20;99.90
15413;DHT22;7805;49.554;7.632;2024-03-02T09:31:32;10.80;99.90
15413;DHT22;7805;49.554;7.632;2024-03-02T09:33:57;10.80;99.90
15413;DHT22;7805;49.554;7.632;2024-03-02T09:36:23;10.90;99.90
15413;DHT22;7805;49.554;7.632;2024-03-02T09:38:49;10.90;99.90
15413;DHT22;7805;49.554;7.632;2024-03-02T09:41:16;10.90;99.90
15413;DHT22;7805;49.554;7.632;2024-03-02T09:43:41;10.90;99.90
15413;DHT22;7805;49.554;7.632;2024-03-02T09:46:09;11.00;99.90
15413;DHT22;7805;49.554;7.632;2024-03-02T09:48:35;11.10;99.90
15413;DHT22;7805;49.554;7.632;2024-03-02T09:51:01;11.30;99.90
15413;DHT22;7805;49.554;7.632;2024-03-02T09:53:31;11.40;99.90
15413;DHT22;7805;49.554;7.632;2024-03-02T09:55:58;11.60;99.90
15413;DHT22;7805;49.554;7.632;2024-03-02T09:58:24;11.70;99.90
15413;DHT22;7805;49.554;7.632;2024-03-02T10:00:49;11.80;99.90
15413;DHT22;7805;49.554;7.632;2024-03-02T10:03:15;11.90;99.90
15413;DHT22;7805;49.554;7.632;2024-03-02T10:05:42;11.90;99.90
15413;DHT22;7805;49.554;7.632;2024-03-02T10:08:07;12.00;99.90
15413;DHT22;7805;49.554;7.632;2024-03-02T10:13:06;12.30;99.90
15413;DHT22;7805;49.554;7.632;2024-03-02T10:15:32;12.40;99.90
15413;DHT22;7805;49.554;7.632;2024-03-02T10:17:57;12.60;99.90
15413;DHT22;7805;49.554;7.632;2024-03-02T10:20:26;11.20;99.90
15413;DHT22;7805;49.554;7.632;2024-03-02T10:23:09;12.80;99.90
15413;DHT22;7805;49.554;7.632;2024-03-02T10:25:35;12.90;99.90
15413;DHT22;7805;49.554;7.632;2024-03-02T10:28:01;13.10;99.90
15413;DHT22;7805;49.554;7.632;2024-03-02T10:30:27;13.20;99.90
15413;DHT22;7805;49.554;7.632;2024-03-02T10:32:54;13.20;99.90
15413;DHT22;7805;49.554;7.632;2024-03-02T10:35:21;13.30;99.90
15413;DHT22;7805;49.554;7.632;2024-03-02T10:37:48;13.50;99.90
15413;DHT22;7805;49.554;7.632;2024-03-02T10:40:14;13.80;99.90
15413;DHT22;7805;49.554;7.632;2024-03-02T10:42:41;13.90;99.90
15413;DHT22;7805;49.554;7.632;2024-03-02T10:45:09;14.20;99.90
15413;DHT22;7805;49.554;7.632;2024-03-02T10:47:37;14.50;99.90
15413;DHT22;7805;49.554;7.632;2024-03-02T10:50:04;14.80;99.90
15413;DHT22;7805;49.554;7.632;2024-03-02T10:52:37;15.10;99.90
15413;DHT22;7805;49.554;7.632;2024-03-02T10:55:03;15.30;99.70
15413;DHT22;7805;49.554;7.632;2024-03-02T10:57:51;15.50;98.40
15413;DHT22;7805;49.554;7.632;2024-03-02T11:00:18;15.40;97.60
15413;DHT22;7805;49.554;7.632;2024-03-02T11:02:56;15.60;96.50
15413;DHT22;7805;49.554;7.632;2024-03-02T11:05:35;15.60;95.10
15413;DHT22;7805;49.554;7.632;2024-03-02T11:08:13;15.80;95.70
15413;DHT22;7805;49.554;7.632;2024-03-02T11:11:00;16.00;95.80
15413;DHT22;7805;49.554;7.632;2024-03-02T11:13:34;16.40;94.20
15413;DHT22;7805;49.554;7.632;2024-03-02T11:16:06;16.60;93.50
15413;DHT22;7805;49.554;7.632;2024-03-02T11:18:34;16.70;93.10
15413;DHT22;7805;49.554;7.632;2024-03-02T11:21:00;16.70;92.80
15413;DHT22;7805;49.554;7.632;2024-03-02T11:23:34;16.70;91.40
15413;DHT22;7805;49.554;7.632;2024-03-02T11:26:19;16.80;90.20
15413;DHT22;7805;49.554;7.632;2024-03-02T11:28:45;17.00;90.20
15413;DHT22;7805;49.554;7.632;2024-03-02T11:31:11;17.20;91.00
15413;DHT22;7805;49.554;7.632;2024-03-02T11:33:37;17.40;90.10
15413;DHT22;7805;49.554;7.632;2024-03-02T11:36:02;17.40;89.30
15413;DHT22;7805;49.554;7.632;2024-03-02T11:38:32;17.30;86.90
15413;DHT22;7805;49.554;7.632;2024-03-02T11:41:02;17.20;87.10
15413;DHT22;7805;49.554;7.632;2024-03-02T11:43:29;17.30;87.30
15413;DHT22;7805;49.554;7.632;2024-03-02T11:45:59;17.40;85.40
15413;DHT22;7805;49.554;7.632;2024-03-02T11:48:25;17.70;85.50
15413;DHT22;7805;49.554;7.632;2024-03-02T11:50:51;18.20;86.60
15413;DHT22;7805;49.554;7.632;2024-03-02T11:53:17;18.60;84.20
15413;DHT22;7805;49.554;7.632;2024-03-02T11:55:44;19.00;79.60
15413;DHT22;7805;49.554;7.632;2024-03-02T11:58:14;19.20;77.90
15413;DHT22;7805;49.554;7.632;2024-03-02T12:00:40;19.80;75.30
15413;DHT22;7805;49.554;7.632;2024-03-02T12:03:07;20.10;74.30
15413;DHT22;7805;49.554;7.632;2024-03-02T12:05:33;20.20;69.70
15413;DHT22;7805;49.554;7.632;2024-03-02T12:08:02;19.70;69.70
15413;DHT22;7805;49.554;7.632;2024-03-02T12:10:28;19.30;70.40
15413;DHT22;7805;49.554;7.632;2024-03-02T12:12:57;19.40;70.90
15413;DHT22;7805;49.554;7.632;2024-03-02T12:15:33;18.50;67.00
15413;DHT22;7805;49.554;7.632;2024-03-02T12:18:00;18.10;68.90
15413;DHT22;7805;49.554;7.632;2024-03-02T12:20:28;17.80;71.70
15413;DHT22;7805;49.554;7.632;2024-03-02T12:22:55;17.80;73.20
15413;DHT22;7805;49.554;7.632;2024-03-02T12:25:23;18.00;74.40
15413;DHT22;7805;49.554;7.632;2024-03-02T12:27:50;18.60;75.60
15413;DHT22;7805;49.554;7.632;2024-03-02T12:30:17;19.20;73.60
15413;DHT22;7805;49.554;7.632;2024-03-02T12:32:44;19.30;71.70
15413;DHT22;7805;49.554;7.632;2024-03-02T12:35:13;19.30;69.30
15413;DHT22;7805;49.554;7.632;2024-03-02T12:37:46;19.30;67.90
15413;DHT22;7805;49.554;7.632;2024-03-02T12:40:13;18.90;64.20
15413;DHT22;7805;49.554;7.632;2024-03-02T12:42:39;19.00;68.00
15413;DHT22;7805;49.554;7.632;2024-03-02T12:45:06;19.40;68.50
15413;DHT22;7805;49.554;7.632;2024-03-02T12:47:33;19.80;67.80
15413;DHT22;7805;49.554;7.632;2024-03-02T12:49:59;20.10;66.20
15413;DHT22;7805;49.554;7.632;2024-03-02T12:52:25;19.30;65.00
15413;DHT22;7805;49.554;7.632;2024-03-02T12:54:50;19.10;65.50
15413;DHT22;7805;49.554;7.632;2024-03-02T12:57:18;19.50;66.60
15413;DHT22;7805;49.554;7.632;2024-03-02T12:59:47;19.90;65.20
15413;DHT22;7805;49.554;7.632;2024-03-02T13:02:19;20.20;62.90
15413;DHT22;7805;49.554;7.632;2024-03-02T13:04:52;20.00;61.60
15413;DHT22;7805;49.554;7.632;2024-03-02T13:07:20;20.30;61.20
15413;DHT22;7805;49.554;7.632;2024-03-02T13:09:46;19.90;61.70
15413;DHT22;7805;49.554;7.632;2024-03-02T13:12:11;20.10;62.90
15413;DHT22;7805;49.554;7.632;2024-03-02T13:14:37;20.80;62.20
15413;DHT22;7805;49.554;7.632;2024-03-02T13:17:08;21.40;60.40
15413;DHT22;7805;49.554;7.632;2024-03-02T13:19:34;22.10;59.30
15413;DHT22;7805;49.554;7.632;2024-03-02T13:22:00;22.20;57.80
15413;DHT22;7805;49.554;7.632;2024-03-02T13:24:27;21.90;57.30
15413;DHT22;7805;49.554;7.632;2024-03-02T13:26:56;21.10;57.20
15413;DHT22;7805;49.554;7.632;2024-03-02T13:29:23;20.40;58.10
15413;DHT22;7805;49.554;7.632;2024-03-02T13:31:49;19.80;59.50
15413;DHT22;7805;49.554;7.632;2024-03-02T13:34:15;19.40;60.00
15413;DHT22;7805;49.554;7.632;2024-03-02T13:36:40;19.20;61.30
15413;DHT22;7805;49.554;7.632;2024-03-02T13:39:06;18.90;61.50
15413;DHT22;7805;49.554;7.632;2024-03-02T13:41:34;18.80;62.50
15413;DHT22;7805;49.554;7.632;2024-03-02T13:44:00;18.40;61.80
15413;DHT22;7805;49.554;7.632;2024-03-02T13:46:27;17.80;63.00
15413;DHT22;7805;49.554;7.632;2024-03-02T13:48:53;17.70;64.70
15413;DHT22;7805;49.554;7.632;2024-03-02T13:51:19;17.70;65.20
15413;DHT22;7805;49.554;7.632;2024-03-02T13:53:45;17.60;65.80
15413;DHT22;7805;49.554;7.632;2024-03-02T13:56:10;17.40;65.90
15413;DHT22;7805;49.554;7.632;2024-03-02T13:58:36;17.40;67.10
15413;DHT22;7805;49.554;7.632;2024-03-02T14:01:01;17.40;66.60
15413;DHT22;7805;49.554;7.632;2024-03-02T14:03:30;17.50;66.80
15413;DHT22;7805;49.554;7.632;2024-03-02T14:05:55;17.50;66.40
15413;DHT22;7805;49.554;7.632;2024-03-02T14:08:21;17.30;67.00
15413;DHT22;7805;49.554;7.632;2024-03-02T14:10:46;17.40;67.60
15413;DHT22;7805;49.554;7.632;2024-03-02T14:13:12;17.50;69.50
15413;DHT22;7805;49.554;7.632;2024-03-02T14:15:37;17.60;68.10
15413;DHT22;7805;49.554;7.632;2024-03-02T14:18:06;17.50;68.40
15413;DHT22;7805;49.554;7.632;2024-03-02T14:20:31;17.30;68.40
15413;DHT22;7805;49.554;7.632;2024-03-02T14:22:58;17.20;69.10
15413;DHT22;7805;49.554;7.632;2024-03-02T14:25:25;15.50;68.00
15413;DHT22;7805;49.554;7.632;2024-03-02T14:27:50;16.80;68.00
15413;DHT22;7805;49.554;7.632;2024-03-02T14:30:16;16.80;70.50
15413;DHT22;7805;49.554;7.632;2024-03-02T14:32:42;16.90;71.20
15413;DHT22;7805;49.554;7.632;2024-03-02T14:35:07;16.90;70.60
15413;DHT22;7805;49.554;7.632;2024-03-02T14:37:36;16.90;70.20
15413;DHT22;7805;49.554;7.632;2024-03-02T14:40:02;16.70;70.60
15413;DHT22;7805;49.554;7.632;2024-03-02T14:42:28;16.80;71.50
15413;DHT22;7805;49.554;7.632;2024-03-02T14:44:56;16.90;70.90
15413;DHT22;7805;49.554;7.632;2024-03-02T14:47:22;17.00;71.30
15413;DHT22;7805;49.554;7.632;2024-03-02T14:49:48;17.00;71.30
15413;DHT22;7805;49.554;7.632;2024-03-02T14:52:13;17.10;71.60
15413;DHT22;7805;49.554;7.632;2024-03-02T14:54:39;17.20;72.10
15413;DHT22;7805;49.554;7.632;2024-03-02T14:57:05;17.10;71.60
15413;DHT22;7805;49.554;7.632;2024-03-02T14:59:30;16.90;71.20
15413;DHT22;7805;49.554;7.632;2024-03-02T15:01:56;16.80;72.40
15413;DHT22;7805;49.554;7.632;2024-03-02T15:04:22;16.80;72.00
15413;DHT22;7805;49.554;7.632;2024-03-02T15:06:48;16.80;72.70
15413;DHT22;7805;49.554;7.632;2024-03-02T15:09:14;16.80;73.20
15413;DHT22;7805;49.554;7.632;2024-03-02T15:11:39;16.90;72.20
15413;DHT22;7805;49.554;7.632;2024-03-02T15:14:05;16.70;72.50
15413;DHT22;7805;49.554;7.632;2024-03-02T15:16:31;16.70;74.20
15413;DHT22;7805;49.554;7.632;2024-03-02T15:18:56;16.70;74.80
15413;DHT22;7805;49.554;7.632;2024-03-02T15:21:22;16.60;74.80
15413;DHT22;7805;49.554;7.632;2024-03-02T15:23:48;16.70;76.30
15413;DHT22;7805;49.554;7.632;2024-03-02T15:26:13;16.50;74.20
15413;DHT22;7805;49.554;7.632;2024-03-02T15:28:39;16.60;75.70
15413;DHT22;7805;49.554;7.632;2024-03-02T15:31:04;16.60;74.40
15413;DHT22;7805;49.554;7.632;2024-03-02T15:33:30;16.60;74.90
15413;DHT22;7805;49.554;7.632;2024-03-02T15:35:58;16.40;74.20
15413;DHT22;7805;49.554;7.632;2024-03-02T15:38:24;16.30;75.60
15413;DHT22;7805;49.554;7.632;2024-03-02T15:40:50;16.20;76.50
15413;DHT22;7805;49.554;7.632;2024-03-02T15:43:15;16.20;77.20
15413;DHT22;7805;49.554;7.632;2024-03-02T15:45:41;16.30;77.40
15413;DHT22;7805;49.554;7.632;2024-03-02T15:48:07;16.40;77.80
15413;DHT22;7805;49.554;7.632;2024-03-02T15:50:32;16.40;78.20
15413;DHT22;7805;49.554;7.632;2024-03-02T15:52:58;16.30;77.70
15413;DHT22;7805;49.554;7.632;2024-03-02T15:55:28;16.20;78.80
15413;DHT22;7805;49.554;7.632;2024-03-02T15:57:54;16.20;79.60
15413;DHT22;7805;49.554;7.632;2024-03-02T16:00:19;16.10;79.50